createdAt,value
2022-11-29T09:17:20.859Z,100102.56
2022-11-29T09:19:48.510Z,100093.72
2022-11-29T09:22:15.604Z,100098.44
2022-11-29T09:24:43.462Z,100099.41
2022-11-29T09:27:10.674Z,100096.75
2022-11-29T09:29:38.667Z,100094.53
2022-11-29T09:32:06.124Z,100097.44
2022-11-29T09:34:33.496Z,100095.38
2022-11-29T09:37:00.414Z,100099.53
2022-11-29T09:39:27.669Z,100102.41
2022-11-29T09:42:27.068Z,100096.91
2022-11-29T09:45:10.903Z,100106.84
2022-11-29T09:48:00.592Z,100103.38
2022-11-29T09:50:45.761Z,100099.25
2022-11-29T09:53:46.560Z,100110.59
2022-11-29T09:56:40.819Z,100102.00
2022-11-29T09:59:24.789Z,100102.28
2022-11-29T10:02:04.092Z,100104.50
2022-11-29T10:04:40.342Z,100104.81
2022-11-29T10:07:36.059Z,100105.59
2022-11-29T10:10:27.554Z,100100.06
2022-11-29T10:13:07.197Z,100107.41
2022-11-29T10:15:43.308Z,100102.81
2022-11-29T10:18:25.654Z,100108.31
2022-11-29T10:20:58.478Z,100100.34
2022-11-29T10:23:43.720Z,100105.00
2022-11-29T10:26:12.695Z,100105.19
2022-11-29T10:28:47.724Z,100101.44
2022-11-29T10:31:22.472Z,100095.19
2022-11-29T10:33:50.639Z,100084.66
2022-11-29T10:36:31.689Z,100088.13
2022-11-29T10:39:13.003Z,100095.63
2022-11-29T10:41:41.623Z,100098.28
2022-11-29T10:44:14.652Z,100092.03
2022-11-29T10:46:41.761Z,100095.25
2022-11-29T10:49:18.634Z,100090.09
2022-11-29T10:51:47.192Z,100083.56
2022-11-29T10:54:41.595Z,100084.25
2022-11-29T10:57:21.885Z,100073.69
2022-11-29T11:00:09.913Z,100076.78
2022-11-29T11:02:38.018Z,100067.34
2022-11-29T11:05:18.551Z,100066.78
2022-11-29T11:07:47.396Z,100062.66
2022-11-29T11:10:27.138Z,100069.91
2022-11-29T11:13:04.532Z,100067.16
2022-11-29T11:15:32.593Z,100083.19
2022-11-29T11:18:06.820Z,100071.22
2022-11-29T11:20:42.333Z,100075.34
2022-11-29T11:23:31.580Z,100073.13
2022-11-29T11:26:05.938Z,100078.66
2022-11-29T11:28:45.407Z,100071.47
2022-11-29T11:31:15.411Z,100083.56
2022-11-29T11:33:49.762Z,100086.19
2022-11-29T11:36:20.790Z,100083.41
2022-11-29T11:39:12.983Z,100075.63
2022-11-29T11:42:03.356Z,100075.06
2022-11-29T11:44:50.881Z,100077.09
2022-11-29T11:47:24.193Z,100075.28
2022-11-29T11:50:04.689Z,100071.41
2022-11-29T11:52:50.033Z,100078.59
2022-11-29T11:55:29.932Z,100080.00
2022-11-29T11:58:12.206Z,100081.41
2022-11-29T12:01:07.130Z,100079.44
2022-11-29T12:03:52.746Z,100070.00
2022-11-29T12:06:50.764Z,100076.72
2022-11-29T12:09:48.998Z,100073.50
2022-11-29T12:12:20.568Z,100080.00
2022-11-29T12:15:02.365Z,100077.00
2022-11-29T12:18:12.793Z,100077.31
2022-11-29T12:20:50.669Z,100086.19
2022-11-29T12:23:45.541Z,100088.50
2022-11-29T12:29:31.950Z,100095.06
2022-11-29T12:32:30.975Z,100082.28
2022-11-29T12:35:35.075Z,100080.88
2022-11-29T12:38:16.440Z,100078.13
2022-11-29T12:40:55.988Z,100085.88
2022-11-29T12:44:07.156Z,100085.06
2022-11-29T12:46:35.384Z,100088.25
2022-11-29T12:49:34.371Z,100091.75
2022-11-29T12:52:43.058Z,100093.56
2022-11-29T12:55:49.572Z,100098.66
2022-11-29T12:58:46.220Z,100086.72
2022-11-29T13:02:11.632Z,100095.03
2022-11-29T13:05:24.397Z,100092.78
2022-11-29T13:08:21.975Z,100102.28
2022-11-29T13:11:29.055Z,100107.97
2022-11-29T13:17:58.885Z,100116.38
2022-11-29T13:20:45.369Z,100123.28
2022-11-29T13:24:00.430Z,100124.16
2022-11-29T13:26:26.974Z,100129.94
2022-11-29T13:28:54.536Z,100123.47
2022-11-29T13:31:25.383Z,100124.69
2022-11-29T13:34:04.152Z,100126.75
2022-11-29T13:37:05.536Z,100126.91
2022-11-29T13:40:18.389Z,100134.13
2022-11-29T13:43:30.491Z,100139.94
2022-11-29T13:46:41.153Z,100134.66
2022-11-29T13:49:58.001Z,100134.13
2022-11-29T13:52:47.638Z,100137.66
2022-11-29T13:55:28.778Z,100136.84
2022-11-29T13:58:26.181Z,100140.03
2022-11-29T14:01:14.779Z,100133.00
2022-11-29T14:04:00.607Z,100141.84
2022-11-29T14:06:39.028Z,100143.50
2022-11-29T14:09:32.561Z,100147.66
2022-11-29T14:12:31.072Z,100148.22
2022-11-29T14:15:16.568Z,100153.47
2022-11-29T14:17:58.219Z,100151.25
2022-11-29T14:20:28.501Z,100170.50
2022-11-29T14:23:04.998Z,100158.19
2022-11-29T14:26:11.073Z,100155.69
2022-11-29T14:28:39.711Z,100159.59
2022-11-29T14:31:08.966Z,100160.97
2022-11-29T14:34:01.460Z,100163.44
2022-11-29T14:36:45.683Z,100168.16
2022-11-29T14:39:50.555Z,100163.75
2022-11-29T14:42:21.783Z,100158.19
2022-11-29T14:44:52.700Z,100162.31
2022-11-29T14:47:26.267Z,100154.06
2022-11-29T14:49:57.592Z,100154.56
2022-11-29T14:52:52.463Z,100160.09
2022-11-29T14:55:33.545Z,100162.88
2022-11-29T14:58:05.911Z,100162.31
2022-11-29T15:00:43.266Z,100159.56
2022-11-29T15:03:28.270Z,100160.53
2022-11-29T15:06:06.089Z,100162.06
2022-11-29T15:08:40.685Z,100165.38
2022-11-29T15:11:40.800Z,100172.84
2022-11-29T15:14:40.795Z,100167.31
2022-11-29T15:17:22.456Z,100168.69
2022-11-29T15:19:57.358Z,100173.66
2022-11-29T15:22:47.904Z,100182.53
2022-11-29T15:25:20.524Z,100180.31
2022-11-29T15:27:56.428Z,100172.47
2022-11-29T15:30:39.551Z,100169.53
2022-11-29T15:33:20.249Z,100171.75
2022-11-29T15:36:19.730Z,100176.47
2022-11-29T15:38:52.933Z,100173.94
2022-11-29T15:41:28.550Z,100176.19
2022-11-29T15:44:05.780Z,100166.75
2022-11-29T15:46:35.460Z,100183.66
2022-11-29T15:49:26.887Z,100183.34
2022-11-29T15:52:20.073Z,100185.59
2022-11-29T15:54:56.573Z,100184.34
2022-11-29T15:57:36.488Z,100180.03
2022-11-29T16:00:16.583Z,100188.91
2022-11-29T16:03:03.484Z,100187.09
2022-11-29T16:05:35.724Z,100192.34
2022-11-29T16:08:12.389Z,100189.59
2022-11-29T16:10:49.244Z,100193.59
2022-11-29T16:13:25.561Z,100193.19
2022-11-29T16:16:16.744Z,100190.28
2022-11-29T16:18:47.009Z,100193.59
2022-11-29T16:21:31.592Z,100198.28
2022-11-29T16:24:11.596Z,100198.84
2022-11-29T16:26:46.032Z,100199.38
2022-11-29T16:29:34.373Z,100194.69
2022-11-29T16:32:15.494Z,100204.09
2022-11-29T16:34:44.680Z,100207.16
2022-11-29T16:37:39.476Z,100223.47
2022-11-29T16:40:23.854Z,100214.38
2022-11-29T16:43:23.847Z,100216.84
2022-11-29T16:46:39.618Z,100220.47
2022-11-29T16:49:32.553Z,100222.09
2022-11-29T16:52:00.467Z,100220.59
2022-11-29T16:54:34.046Z,100223.19
2022-11-29T16:57:06.391Z,100238.13
2022-11-29T16:59:35.344Z,100222.78
2022-11-29T17:02:11.325Z,100235.13
2022-11-29T17:04:38.905Z,100229.03
2022-11-29T17:07:26.317Z,100234.56
2022-11-29T17:09:54.668Z,100237.88
2022-11-29T17:12:21.760Z,100242.97
2022-11-29T17:14:49.129Z,100236.78
2022-11-29T17:17:18.973Z,100231.34
2022-11-29T17:19:46.272Z,100235.50
2022-11-29T17:22:13.264Z,100236.25
2022-11-29T17:24:47.451Z,100235.56
2022-11-29T17:27:15.260Z,100234.00
2022-11-29T17:29:42.503Z,100230.16
2022-11-29T17:32:09.589Z,100225.72
2022-11-29T17:34:37.135Z,100222.66
2022-11-29T17:37:04.619Z,100230.41
2022-11-29T17:39:32.428Z,100228.22
2022-11-29T17:41:59.425Z,100231.00
2022-11-29T17:44:26.639Z,100237.34
2022-11-29T17:46:53.658Z,100243.72
2022-11-29T17:49:20.838Z,100239.72
2022-11-29T17:51:52.848Z,100242.59
2022-11-29T17:54:22.294Z,100244.81
2022-11-29T17:56:50.493Z,100237.09
2022-11-29T17:59:18.142Z,100242.59
2022-11-29T18:01:47.099Z,100234.88
2022-11-29T18:04:14.928Z,100237.19
2022-11-29T18:06:42.345Z,100235.69
2022-11-29T18:09:11.457Z,100241.19
2022-11-29T18:11:47.979Z,100234.84
2022-11-29T18:14:20.791Z,100246.50
2022-11-29T18:16:47.884Z,100242.59
2022-11-29T18:19:19.312Z,100243.88
2022-11-29T18:21:47.337Z,100247.88
2022-11-29T18:24:15.049Z,100251.19
2022-11-29T18:26:43.207Z,100252.44
2022-11-29T18:29:10.772Z,100254.50
2022-11-29T18:31:42.035Z,100247.28
2022-11-29T18:34:12.996Z,100253.13
2022-11-29T18:36:49.401Z,100251.72
2022-11-29T18:39:23.163Z,100248.41
2022-11-29T18:41:50.992Z,100251.19
2022-11-29T18:44:21.778Z,100249.22
2022-11-29T18:46:49.100Z,100245.66
2022-11-29T18:49:18.505Z,100249.81
2022-11-29T18:51:47.433Z,100245.66
2022-11-29T18:54:18.024Z,100265.72
2022-11-29T18:56:46.004Z,100257.00
2022-11-29T18:59:17.480Z,100247.59
2022-11-29T19:01:47.915Z,100253.81
2022-11-29T19:04:20.911Z,100252.28
2022-11-29T19:06:49.380Z,100249.41
2022-11-29T19:09:23.724Z,100249.13
2022-11-29T19:11:50.982Z,100260.19
2022-11-29T19:14:19.412Z,100250.06
2022-11-29T19:16:48.443Z,100268.75
2022-11-29T19:19:15.797Z,100256.59
2022-11-29T19:21:42.796Z,100258.38
2022-11-29T19:24:18.127Z,100260.00
2022-11-29T19:26:47.440Z,100258.03
2022-11-29T19:29:16.098Z,100261.69
2022-11-29T19:31:43.238Z,100261.13
2022-11-29T19:34:11.198Z,100262.50
2022-11-29T19:36:43.128Z,100269.41
2022-11-29T19:39:14.599Z,100277.75
2022-11-29T19:41:45.206Z,100276.53
2022-11-29T19:44:13.374Z,100267.66
2022-11-29T19:46:48.377Z,100265.28
2022-11-29T19:49:16.112Z,100270.00
2022-11-29T19:51:43.339Z,100267.78
2022-11-29T19:54:11.827Z,100268.06
2022-11-29T19:56:39.222Z,100274.41
2022-11-29T19:59:08.681Z,100271.94
2022-11-29T20:01:42.032Z,100262.53
2022-11-29T20:04:13.223Z,100265.84
2022-11-29T20:06:41.250Z,100270.28
2022-11-29T20:09:09.328Z,100268.22
2022-11-29T20:11:36.602Z,100273.91
2022-11-29T20:14:07.766Z,100275.84
2022-11-29T20:16:38.021Z,100268.91
2022-11-29T20:19:13.178Z,100277.75
2022-11-29T20:21:47.654Z,100280.00
2022-11-29T20:24:17.295Z,100276.94
2022-11-29T20:26:47.132Z,100282.75
2022-11-29T20:29:15.309Z,100289.69
2022-11-29T20:31:50.025Z,100277.75
2022-11-29T20:34:19.030Z,100281.91
2022-11-29T20:37:30.201Z,100276.09
2022-11-29T20:40:03.339Z,100278.31
2022-11-29T20:43:05.613Z,100277.63
2022-11-29T20:45:33.433Z,100283.03
2022-11-29T20:48:16.687Z,100276.09
2022-11-29T20:59:32.682Z,100294.94
2022-11-29T21:02:01.419Z,100292.56
2022-11-29T21:04:28.768Z,100297.69
2022-11-29T21:11:12.652Z,100293.25
2022-11-29T21:14:30.972Z,100293.69
2022-11-29T21:16:58.468Z,100295.88
2022-11-29T21:19:26.575Z,100297.41
2022-11-29T21:22:24.508Z,100294.09
2022-11-29T21:25:20.272Z,100297.66
2022-11-29T21:27:47.788Z,100301.44
2022-11-29T21:30:22.327Z,100294.09
2022-11-29T21:32:49.861Z,100296.03
2022-11-29T21:35:17.638Z,100299.38
2022-11-29T21:37:46.172Z,100305.16
2022-11-29T21:40:15.165Z,100300.47
2022-11-29T21:42:55.019Z,100305.19
2022-11-29T21:50:50.291Z,100305.44
2022-11-29T21:53:17.577Z,100304.88
2022-11-29T21:55:44.939Z,100294.38
2022-11-29T21:58:13.988Z,100296.31
2022-11-29T22:00:40.896Z,100295.31
2022-11-29T22:03:08.171Z,100295.19
2022-11-29T22:05:35.351Z,100294.09
2022-11-29T22:08:02.820Z,100291.31
2022-11-29T22:23:14.082Z,100290.78
2022-11-29T22:26:07.161Z,100286.47
2022-11-29T22:28:35.834Z,100294.63
2022-11-29T22:46:29.282Z,100300.03
2022-11-29T22:49:00.723Z,100302.66
2022-11-29T22:51:35.060Z,100296.03
2022-11-29T22:54:08.911Z,100298.94
2022-11-29T22:56:39.708Z,100297.94
2022-11-29T22:59:06.948Z,100292.69
2022-11-29T23:01:37.536Z,100309.88
2022-11-29T23:04:08.424Z,100299.84
2022-11-29T23:06:45.521Z,100300.56
2022-11-29T23:09:21.198Z,100306.81
2022-11-29T23:12:10.189Z,100307.53
2022-11-29T23:15:44.055Z,100315.38
2022-11-29T23:23:23.435Z,100297.28
2022-11-29T23:32:51.868Z,100293.53
2022-11-29T23:44:29.616Z,100300.44
